Time;durP1;ratioP1;P1;durP2;ratioP2;P2;SDS_P1;SDS_P2;PMS_P1;PMS_P2;Temp;Humidity;BMP_temperature;BMP_pressure;BME280_temperature;BME280_humidity;BME280_pressure;Samples;Min_cycle;Max_cycle;Signal;HPM_P1;HPM_P2
2021/08/23 00:01:13;;;;;;;1.27;1.00;;;;;;;10.79;65.77;101912.94;4990807;28;20257;-68
2021/08/23 00:03:41;;;;;;;1.67;1.23;;;;;;;10.77;65.58;101917.53;4990460;28;20203;-68
2021/08/23 00:06:09;;;;;;;1.80;1.13;;;;;;;10.70;65.61;101921.44;4981551;28;20247;-68
2021/08/23 00:08:39;;;;;;;4.97;1.23;;;;;;;10.51;65.71;101897.31;4983997;28;20210;-68
2021/08/23 00:11:07;;;;;;;1.40;1.30;;;;;;;10.63;65.88;101921.81;4989814;28;20599;-69
2021/08/23 00:13:35;;;;;;;1.93;1.13;;;;;;;10.60;66.23;101920.16;5002651;28;20310;-68
2021/08/23 00:16:04;;;;;;;1.87;1.00;;;;;;;10.55;65.66;101927.56;4992089;28;20203;-68
2021/08/23 00:18:32;;;;;;;2.43;1.10;;;;;;;10.51;66.18;101926.00;4991043;28;20215;-68
2021/08/23 00:21:02;;;;;;;1.63;1.20;;;;;;;10.52;65.35;101927.72;4976170;28;20220;-68
2021/08/23 00:23:35;;;;;;;1.97;1.10;;;;;;;10.50;66.11;101935.00;4999802;28;20214;-68
2021/08/23 00:26:23;;;;;;;1.47;1.13;;;;;;;10.45;65.88;101927.16;4983195;28;20674;-68
2021/08/23 00:28:51;;;;;;;3.87;1.07;;;;;;;10.48;65.75;101934.19;4989903;28;20212;-68
2021/08/23 00:31:19;;;;;;;1.80;1.23;;;;;;;10.41;66.25;101930.06;4987173;28;20199;-68
2021/08/23 00:33:47;;;;;;;2.63;1.10;;;;;;;10.42;65.48;101931.81;4987440;28;20229;-68
2021/08/23 00:36:15;;;;;;;6.03;1.40;;;;;;;10.42;65.80;101937.19;5006882;28;20210;-68
2021/08/23 00:38:43;;;;;;;4.30;1.53;;;;;;;10.40;65.76;101933.66;4974976;28;20264;-67
2021/08/23 00:41:11;;;;;;;1.80;1.30;;;;;;;10.39;65.76;101931.94;4977826;28;20681;-68
2021/08/23 00:43:40;;;;;;;2.07;1.27;;;;;;;10.31;66.32;101936.81;4989693;28;20199;-68
2021/08/23 00:46:09;;;;;;;2.30;1.37;;;;;;;10.16;66.41;101936.56;4979879;28;20616;-68
2021/08/23 00:48:37;;;;;;;1.70;1.30;;;;;;;10.09;65.95;101921.66;4978659;28;20225;-68
2021/08/23 00:51:05;;;;;;;4.43;1.23;;;;;;;10.22;66.00;101941.66;4990132;28;20216;-69
2021/08/23 00:53:33;;;;;;;1.90;1.20;;;;;;;10.21;65.76;101950.66;4981187;28;20207;-68
2021/08/23 00:56:02;;;;;;;1.93;1.23;;;;;;;10.25;65.59;101944.22;4988495;28;20214;-68
2021/08/23 00:58:30;;;;;;;2.20;1.17;;;;;;;10.26;65.45;101945.94;4989481;28;20230;-68
2021/08/23 01:01:04;;;;;;;2.83;1.07;;;;;;;10.24;65.40;101944.28;4986604;28;20211;-68
2021/08/23 01:03:38;;;;;;;1.50;1.20;;;;;;;10.23;64.92;101943.41;4988572;28;20222;-68
2021/08/23 01:06:09;;;;;;;1.07;0.90;;;;;;;10.25;65.26;101948.72;4982382;28;20204;-68
2021/08/23 01:08:39;;;;;;;2.17;0.97;;;;;;;10.21;65.26;101950.66;4987961;28;20203;-68
2021/08/23 01:11:11;;;;;;;1.37;1.10;;;;;;;10.04;65.52;101925.50;4985864;28;20670;-68
2021/08/23 01:13:44;;;;;;;0.93;0.93;;;;;;;10.06;65.73;101954.00;4988060;28;20204;-68
2021/08/23 01:16:14;;;;;;;1.90;1.10;;;;;;;9.97;65.61;101943.72;4983812;28;20790;-68
2021/08/23 01:18:43;;;;;;;2.00;1.00;;;;;;;10.00;65.07;101950.75;4988834;28;20269;-68
2021/08/23 01:21:13;;;;;;;2.00;1.10;;;;;;;9.92;65.71;101948.44;4988540;28;20708;-68
2021/08/23 01:23:43;;;;;;;2.20;1.13;;;;;;;9.83;65.44;101938.13;4986607;28;20215;-68
2021/08/23 01:26:14;;;;;;;3.40;1.30;;;;;;;9.87;65.59;101951.31;4987687;28;20214;-68
2021/08/23 01:28:49;;;;;;;0.90;0.90;;;;;;;9.86;65.53;101956.75;4989255;28;20223;-68
2021/08/23 01:31:27;;;;;;;1.57;1.00;;;;;;;9.85;65.58;101958.56;4972531;28;20204;-69
2021/08/23 01:33:57;;;;;;;1.40;0.97;;;;;;;9.84;65.69;101961.31;4980582;28;20206;-68
2021/08/23 01:36:25;;;;;;;2.00;1.30;;;;;;;9.69;65.84;101943.22;4982839;28;20205;-68
2021/08/23 01:38:53;;;;;;;3.47;1.40;;;;;;;9.66;65.99;101933.50;4969762;28;20263;-68
2021/08/23 01:41:21;;;;;;;3.30;1.10;;;;;;;9.79;66.43;101961.50;4984550;28;20269;-68
2021/08/23 01:43:49;;;;;;;1035.13;632.30;;;;;;;9.76;65.47;101968.81;4981272;28;20255;-68
2021/08/23 01:46:18;;;;;;;42.60;24.70;;;;;;;9.78;65.85;101969.63;4983151;28;20619;-67
2021/08/23 01:48:46;;;;;;;4.20;3.33;;;;;;;9.77;65.89;101970.56;4989437;28;20219;-68
2021/08/23 01:51:16;;;;;;;839.43;724.50;;;;;;;9.76;66.16;101971.50;4988865;28;20281;-68
2021/08/23 01:53:44;;;;;;;2.07;1.80;;;;;;;9.68;67.12;101977.22;4988368;28;20278;-68
2021/08/23 01:56:12;;;;;;;2.13;1.37;;;;;;;9.67;66.39;101974.59;4988847;28;20242;-68
2021/08/23 01:58:40;;;;;;;2.40;1.70;;;;;;;9.55;66.35;101966.16;4988160;28;20211;-67
2021/08/23 02:01:08;;;;;;;4.60;3.07;;;;;;;9.62;66.40;101972.13;4988174;28;20265;-67
2021/08/23 02:03:36;;;;;;;4.20;2.30;;;;;;;9.76;65.71;101974.19;4988833;28;20595;-68
2021/08/23 02:06:04;;;;;;;5.47;3.77;;;;;;;9.78;65.29;101972.31;4988466;28;20546;-68
2021/08/23 02:08:33;;;;;;;3.63;2.40;;;;;;;9.79;65.27;101968.69;4991146;28;20865;-68
2021/08/23 02:11:01;;;;;;;5.93;1.60;;;;;;;9.84;65.22;101977.41;4985654;28;20266;-69
2021/08/23 02:13:29;;;;;;;3.20;1.70;;;;;;;9.82;65.90;101976.63;4985684;28;20706;-68
2021/08/23 02:15:57;;;;;;;2.60;1.60;;;;;;;9.81;65.21;101974.88;4990829;28;20622;-68
2021/08/23 02:18:25;;;;;;;2.00;1.20;;;;;;;9.80;65.17;101981.19;4992808;28;20865;-67
2021/08/23 02:20:53;;;;;;;4.70;1.50;;;;;;;9.75;65.29;101980.50;4992293;28;20262;-68
2021/08/23 02:23:21;;;;;;;1.40;1.20;;;;;;;9.75;65.92;101978.69;4992955;28;20205;-67
2021/08/23 02:25:52;;;;;;;2.80;1.33;;;;;;;9.75;65.20;101973.31;4991492;28;20216;-68
2021/08/23 02:28:20;;;;;;;1.50;1.30;;;;;;;9.73;65.85;101977.00;4992205;28;20278;-67
2021/08/23 02:30:48;;;;;;;3.17;1.10;;;;;;;9.70;65.96;101979.81;4982441;28;20640;-68
2021/08/23 02:33:16;;;;;;;1.10;1.00;;;;;;;9.71;65.47;101984.25;4986061;28;20204;-67
2021/08/23 02:35:44;;;;;;;1.10;0.93;;;;;;;9.70;65.74;101987.88;4989068;28;20226;-67
2021/08/23 02:38:13;;;;;;;1.40;1.10;;;;;;;9.70;65.21;101993.25;4987556;28;20206;-67
2021/08/23 02:40:41;;;;;;;1.43;1.03;;;;;;;9.14;65.91;101900.06;4981009;28;20204;-68
2021/08/23 02:43:10;;;;;;;2.37;1.20;;;;;;;9.62;65.83;101981.03;4994781;28;20272;-68
2021/08/23 02:45:39;;;;;;;1.43;1.00;;;;;;;9.60;65.27;101990.97;4994603;28;20293;-68
2021/08/23 02:48:07;;;;;;;1.60;1.13;;;;;;;9.64;65.44;101989.03;4991990;28;20215;-67
2021/08/23 02:50:35;;;;;;;3.10;1.30;;;;;;;9.64;65.18;101989.03;4992073;28;20203;-68
2021/08/23 02:53:03;;;;;;;1.80;1.20;;;;;;;9.64;65.35;101989.03;4986492;28;20261;-67
2021/08/23 02:55:31;;;;;;;2.00;1.03;;;;;;;9.58;65.45;101982.13;4978038;28;20227;-68
2021/08/23 02:57:59;;;;;;;3.60;1.10;;;;;;;9.60;65.64;101988.28;4991840;28;20210;-68
2021/08/23 03:00:29;;;;;;;1.00;0.90;;;;;;;9.64;65.70;101997.94;4989950;28;20560;-67
2021/08/23 03:02:58;;;;;;;2.37;1.10;;;;;;;9.56;66.15;101981.31;4990096;28;20246;-68
2021/08/23 03:05:26;;;;;;;1.73;1.10;;;;;;;9.57;66.03;101998.28;4987078;28;20215;-68
2021/08/23 03:07:54;;;;;;;1.70;1.10;;;;;;;9.48;66.43;101999.53;4989722;28;20258;-68
2021/08/23 03:10:23;;;;;;;1.73;1.20;;;;;;;9.41;65.84;102006.09;4990151;28;20582;-68
2021/08/23 03:12:51;;;;;;;1.17;0.87;;;;;;;9.37;65.94;101999.13;4982635;28;20296;-67
2021/08/23 03:15:21;;;;;;;2.87;1.00;;;;;;;9.30;66.38;102009.25;4984848;28;20216;-68
2021/08/23 03:17:51;;;;;;;1.20;0.90;;;;;;;9.28;66.32;102015.59;4988993;28;20749;-68
2021/08/23 03:20:19;;;;;;;2.00;1.10;;;;;;;9.25;65.77;102015.75;4979132;28;20586;-68
2021/08/23 03:22:47;;;;;;;5.13;1.13;;;;;;;9.15;66.43;102006.31;4979866;28;20213;-67
2021/08/23 03:25:16;;;;;;;1.37;1.13;;;;;;;9.19;65.76;102021.34;4991044;28;20575;-67
2021/08/23 03:27:44;;;;;;;1.23;1.13;;;;;;;9.17;66.11;102009.81;4988403;28;20623;-67
2021/08/23 03:30:13;;;;;;;1.87;1.00;;;;;;;9.15;66.39;102015.22;4987405;28;20614;-67
2021/08/23 03:32:41;;;;;;;4.53;1.13;;;;;;;9.03;65.85;102005.91;4991087;28;20200;-68
2021/08/23 03:35:11;;;;;;;1.50;1.20;;;;;;;9.08;66.52;102012.88;4985093;28;20258;-68
2021/08/23 03:37:39;;;;;;;1.50;1.10;;;;;;;9.05;66.07;102018.34;4989380;28;20211;-68
2021/08/23 03:40:08;;;;;;;1.47;1.00;;;;;;;9.03;65.81;102024.66;4989206;28;20218;-67
2021/08/23 03:42:36;;;;;;;2.20;1.03;;;;;;;9.02;66.28;102024.72;4986661;28;20200;-67
2021/08/23 03:45:06;;;;;;;1.23;1.00;;;;;;;8.97;65.87;102026.72;4983953;28;20208;-68
2021/08/23 03:47:34;;;;;;;7.10;1.00;;;;;;;8.99;65.85;102030.19;4987245;28;20276;-68
2021/08/23 03:50:02;;;;;;;3.93;1.00;;;;;;;8.69;67.28;102002.84;4979641;28;20624;-68
2021/08/23 03:52:31;;;;;;;1.60;1.10;;;;;;;8.86;67.39;102034.28;4989827;28;20206;-67
2021/08/23 03:54:59;;;;;;;1.93;1.20;;;;;;;8.85;67.23;102028.06;4990206;28;20210;-67
2021/08/23 03:57:27;;;;;;;1.53;0.97;;;;;;;8.84;66.71;102029.00;4986643;28;20237;-67
2021/08/23 03:59:55;;;;;;;1.10;0.90;;;;;;;8.80;67.18;102034.53;4988010;28;20207;-67
2021/08/23 04:02:23;;;;;;;2.47;1.47;;;;;;;8.80;67.73;102035.41;4984957;28;20314;-67
2021/08/23 04:04:51;;;;;;;5.53;1.33;;;;;;;8.81;67.20;102031.78;4987416;28;20210;-68
2021/08/23 04:07:19;;;;;;;1.80;1.20;;;;;;;8.87;66.83;102039.59;4984587;28;20901;-67
2021/08/23 04:09:49;;;;;;;2.03;1.10;;;;;;;8.93;67.00;102042.03;4988179;28;20220;-67
2021/08/23 04:12:17;;;;;;;3.73;1.40;;;;;;;8.98;66.51;102039.19;4982953;28;20616;-67
2021/08/23 04:14:45;;;;;;;2.13;1.23;;;;;;;9.04;66.42;102046.97;4989010;28;20206;-67
2021/08/23 04:17:13;;;;;;;3.10;1.67;;;;;;;8.93;67.89;102047.41;4992301;28;20235;-67
2021/08/23 04:19:41;;;;;;;1.20;1.10;;;;;;;9.05;67.18;102053.19;4981470;28;20198;-67
2021/08/23 04:22:11;;;;;;;1.47;1.07;;;;;;;9.16;66.40;102048.25;4985329;28;20201;-68
2021/08/23 04:24:39;;;;;;;1.30;0.90;;;;;;;9.14;66.49;102028.69;4984441;28;20211;-68
2021/08/23 04:27:09;;;;;;;2.50;1.20;;;;;;;8.97;67.76;102007.97;4987866;28;20207;-71
2021/08/23 04:29:37;;;;;;;2.60;1.20;;;;;;;9.26;67.62;102055.00;4982040;28;20224;-72
2021/08/23 04:32:05;;;;;;;3.40;1.30;;;;;;;9.32;67.81;102047.56;4977906;28;20220;-72
2021/08/23 04:34:33;;;;;;;1.87;1.17;;;;;;;9.34;67.29;102047.50;4981476;28;20212;-70
2021/08/23 04:37:04;;;;;;;1.53;1.10;;;;;;;9.38;68.05;102054.50;4983352;28;20230;-69
2021/08/23 04:39:32;;;;;;;4.17;1.60;;;;;;;9.41;68.25;102054.34;4981678;28;20804;-71
2021/08/23 04:42:01;;;;;;;1.60;1.37;;;;;;;9.45;68.36;102050.59;4974910;28;20217;-70
2021/08/23 04:44:31;;;;;;;1.93;1.37;;;;;;;9.52;68.08;102044.06;4983049;28;20230;-68
2021/08/23 04:46:59;;;;;;;3.93;1.20;;;;;;;9.61;68.32;102058.91;4982906;28;20194;-69
2021/08/23 04:49:27;;;;;;;2.17;1.10;;;;;;;9.65;69.01;102053.31;4986861;28;20340;-69
2021/08/23 04:51:55;;;;;;;1.80;1.00;;;;;;;9.69;69.66;102063.91;5003671;28;20203;-69
2021/08/23 04:54:23;;;;;;;4.40;1.50;;;;;;;9.77;69.07;102062.63;4988704;28;20200;-69
2021/08/23 04:56:51;;;;;;;1999.90;824.00;;;;;;;9.21;68.15;101948.00;4982428;28;20279;-69
2021/08/23 04:59:20;;;;;;;116.03;68.03;;;;;;;10.00;69.06;102058.09;4999448;28;20604;-69
2021/08/23 05:01:49;;;;;;;15.37;13.80;;;;;;;10.04;69.80;102059.69;4985529;28;20753;-69
2021/08/23 05:04:18;;;;;;;4.37;3.07;;;;;;;10.11;70.09;102056.69;4983838;28;20295;-70
2021/08/23 05:06:46;;;;;;;3.30;3.00;;;;;;;10.20;70.17;102067.03;4984685;28;20230;-69
2021/08/23 05:09:14;;;;;;;2.10;1.70;;;;;;;10.29;70.58;102062.19;4984018;28;20240;-69
2021/08/23 05:11:42;;;;;;;2.90;1.57;;;;;;;10.33;70.67;102053.94;4987985;28;20203;-69
2021/08/23 05:14:10;;;;;;;2.63;1.53;;;;;;;10.56;70.61;102069.00;4976528;28;20259;-70
2021/08/23 05:16:38;;;;;;;3.73;1.60;;;;;;;10.67;71.15;102060.41;4986363;28;20250;-69
2021/08/23 05:19:07;;;;;;;2.07;1.30;;;;;;;10.82;71.11;102071.34;4987528;28;20226;-69
2021/08/23 05:21:35;;;;;;;2.53;1.40;;;;;;;10.69;70.90;102021.78;4987780;28;20916;-70
2021/08/23 05:24:04;;;;;;;8.20;1.70;;;;;;;10.70;70.17;101990.41;4989321;28;20266;-70
2021/08/23 05:26:32;;;;;;;4.30;1.60;;;;;;;11.35;71.10;102070.56;4979691;28;20200;-69
2021/08/23 05:29:00;;;;;;;1.93;1.43;;;;;;;11.27;71.75;102037.78;4985285;28;20237;-69
2021/08/23 05:31:28;;;;;;;3.67;1.63;;;;;;;11.68;72.06;102084.13;5002904;28;20274;-69
2021/08/23 05:33:57;;;;;;;1.43;1.20;;;;;;;11.88;71.66;102079.56;4987648;28;20203;-69
2021/08/23 05:36:26;;;;;;;1.83;1.37;;;;;;;12.02;71.29;102077.91;4987513;28;20231;-69
2021/08/23 05:38:54;;;;;;;2.00;1.30;;;;;;;12.25;72.13;102081.22;4988289;28;20615;-69
2021/08/23 05:41:22;;;;;;;3.93;1.50;;;;;;;12.11;71.78;102020.88;4989000;28;20206;-69
2021/08/23 05:43:52;;;;;;;2.40;1.50;;;;;;;12.73;71.16;102086.63;4993883;28;20202;-69
2021/08/23 05:46:21;;;;;;;2.60;1.90;;;;;;;13.00;70.38;102084.22;4992822;28;20206;-69
2021/08/23 05:48:49;;;;;;;1.83;1.17;;;;;;;13.09;72.81;102087.34;4993411;28;20217;-69
2021/08/23 05:51:19;;;;;;;5.63;1.70;;;;;;;13.32;70.65;102084.25;4991064;28;20284;-69
2021/08/23 05:53:48;;;;;;;1.63;1.33;;;;;;;13.64;70.53;102082.38;5003260;28;20200;-70
2021/08/23 05:56:17;;;;;;;2.67;1.40;;;;;;;13.92;70.08;102092.41;5003024;28;20210;-69
2021/08/23 05:58:47;;;;;;;2.57;1.60;;;;;;;14.22;69.73;102095.06;4994292;28;20242;-69
2021/08/23 06:01:15;;;;;;;3.40;1.50;;;;;;;14.54;68.47;102091.28;4989976;28;20214;-70
2021/08/23 06:03:44;;;;;;;2.10;1.37;;;;;;;14.87;68.26;102081.97;4993436;28;20199;-69
2021/08/23 06:06:13;;;;;;;4.87;1.50;;;;;;;15.23;68.39;102090.41;4993475;28;20667;-69
2021/08/23 06:08:43;;;;;;;1.30;1.20;;;;;;;15.48;67.59;102097.78;4992910;28;20207;-69
2021/08/23 06:11:13;;;;;;;2.47;1.40;;;;;;;15.67;65.87;102097.47;4993438;28;20663;-69
2021/08/23 06:13:41;;;;;;;1.23;1.03;;;;;;;15.91;64.96;102099.44;4990819;28;20208;-69
2021/08/23 06:16:09;;;;;;;1.80;1.40;;;;;;;16.15;64.88;102108.59;4993894;28;20235;-69
2021/08/23 06:18:37;;;;;;;2.53;1.07;;;;;;;16.09;63.60;102103.63;4992953;28;20238;-69
2021/08/23 06:21:05;;;;;;;1.97;1.30;;;;;;;16.25;64.33;102100.72;4991945;28;20303;-69
2021/08/23 06:23:33;;;;;;;2.53;1.50;;;;;;;16.52;63.58;102108.72;4993521;28;20274;-70
2021/08/23 06:26:01;;;;;;;1.23;1.00;;;;;;;16.52;63.37;102112.31;4992171;28;20625;-70
2021/08/23 06:28:31;;;;;;;1.73;1.30;;;;;;;16.59;63.08;102113.63;4992885;28;20206;-69
2021/08/23 06:30:59;;;;;;;3.10;1.33;;;;;;;16.63;63.28;102112.44;4993086;28;20251;-70
2021/08/23 06:33:27;;;;;;;1.97;1.00;;;;;;;16.63;62.17;102114.28;4993463;28;20219;-69
2021/08/23 06:35:55;;;;;;;2.20;1.23;;;;;;;16.73;62.74;102115.38;4992729;28;20208;-69
2021/08/23 06:38:23;;;;;;;1.63;1.30;;;;;;;16.72;63.08;102117.22;4980350;28;20217;-69
2021/08/23 06:40:51;;;;;;;1.70;1.20;;;;;;;17.02;62.04;102110.56;4992678;28;20266;-70
2021/08/23 06:43:19;;;;;;;2.30;1.30;;;;;;;17.22;62.07;102117.25;4992699;28;20204;-70
2021/08/23 06:45:49;;;;;;;2.37;1.10;;;;;;;17.29;61.49;102105.81;4992651;28;20200;-70
2021/08/23 06:48:17;;;;;;;1.43;1.20;;;;;;;17.34;61.26;102109.06;4992844;28;20730;-70
2021/08/23 06:50:45;;;;;;;2.83;1.30;;;;;;;17.50;61.07;102116.94;4992647;28;20251;-70
2021/08/23 06:53:13;;;;;;;1.60;1.17;;;;;;;17.52;60.10;102115.00;5007308;28;20204;-70
2021/08/23 06:55:41;;;;;;;1.30;1.20;;;;;;;17.48;60.90;102108.06;4993480;28;20714;-70
2021/08/23 06:58:09;;;;;;;1.20;1.10;;;;;;;17.74;61.23;102108.81;4992804;28;20759;-70
2021/08/23 07:00:38;;;;;;;1.27;1.03;;;;;;;17.94;60.53;102112.72;4992208;28;20196;-70
2021/08/23 07:03:07;;;;;;;1.83;1.07;;;;;;;18.13;59.65;102114.91;4992467;28;20236;-70
2021/08/23 07:05:35;;;;;;;2.23;1.30;;;;;;;18.27;58.80;102110.09;4991967;28;20210;-70
2021/08/23 07:08:04;;;;;;;2.90;1.10;;;;;;;18.33;58.42;102114.19;4992991;28;20227;-70
2021/08/23 07:10:32;;;;;;;1.43;1.10;;;;;;;18.23;57.38;102122.22;4991942;28;20196;-70
2021/08/23 07:13:01;;;;;;;2.37;0.90;;;;;;;18.38;58.08;102119.31;4992629;28;20208;-70
2021/08/23 07:15:29;;;;;;;1.10;1.00;;;;;;;18.34;57.79;102105.06;4990575;28;20223;-70
2021/08/23 07:17:57;;;;;;;1.20;1.10;;;;;;;18.40;58.05;102118.19;4991495;28;20716;-70
2021/08/23 07:20:27;;;;;;;1.30;0.90;;;;;;;18.43;57.65;102122.53;4978181;28;20298;-70
2021/08/23 07:22:55;;;;;;;1.63;1.00;;;;;;;18.47;57.35;102126.72;4992698;28;20254;-70
2021/08/23 07:25:23;;;;;;;1.23;1.10;;;;;;;18.55;57.87;102126.97;4978017;28;20212;-70
2021/08/23 07:27:51;;;;;;;1.27;0.87;;;;;;;18.73;57.53;102122.84;4991680;28;20666;-70
2021/08/23 07:30:20;;;;;;;2.07;1.10;;;;;;;18.66;56.71;102099.81;4992050;28;20238;-70
2021/08/23 07:32:48;;;;;;;1.07;0.90;;;;;;;18.77;55.92;102109.84;4991683;28;20208;-70
2021/08/23 07:35:16;;;;;;;1.70;1.30;;;;;;;18.88;56.95;102118.88;4992567;28;20239;-69
2021/08/23 07:37:46;;;;;;;2.57;1.40;;;;;;;19.04;56.13;102114.91;4978268;28;20226;-70
2021/08/23 07:40:17;;;;;;;1.43;1.20;;;;;;;19.33;55.54;102118.84;4992451;28;20196;-70
2021/08/23 07:42:45;;;;;;;1.27;0.80;;;;;;;19.49;55.30;102130.19;4991508;28;20200;-70
2021/08/23 07:45:16;;;;;;;1.20;1.07;;;;;;;19.66;54.23;102125.22;4983520;28;20199;-70
2021/08/23 07:47:45;;;;;;;0.90;0.90;;;;;;;19.84;54.27;102129.09;4973798;28;20204;-70
2021/08/23 07:50:14;;;;;;;2.43;1.30;;;;;;;20.05;54.23;102131.88;4992224;28;20251;-70
2021/08/23 07:52:42;;;;;;;1.90;1.10;;;;;;;20.04;53.44;102130.16;4991343;28;20363;-70
2021/08/23 07:55:12;;;;;;;1.13;1.03;;;;;;;20.31;53.52;102107.81;4990736;28;20203;-70
2021/08/23 07:57:42;;;;;;;1.73;1.00;;;;;;;20.82;52.44;102135.16;4991545;28;20588;-70
2021/08/23 08:00:12;;;;;;;1.67;0.90;;;;;;;20.75;50.69;102140.28;4990944;28;20258;-70
2021/08/23 08:02:41;;;;;;;1.00;0.90;;;;;;;20.69;50.98;102145.41;4991355;28;20587;-70
2021/08/23 08:05:12;;;;;;;1.90;0.90;;;;;;;20.94;51.03;102136.78;4989470;28;20203;-70
2021/08/23 08:07:40;;;;;;;1.10;1.00;;;;;;;21.36;50.08;102143.00;4971939;28;20188;-70
2021/08/23 08:10:10;;;;;;;1.37;0.93;;;;;;;21.59;49.60;102145.50;4985412;28;20196;-70
2021/08/23 08:12:40;;;;;;;1.97;1.00;;;;;;;21.50;48.30;102151.81;4991100;28;20718;-70
2021/08/23 08:15:10;;;;;;;1.20;1.10;;;;;;;21.57;48.79;102139.31;4991121;28;20255;-70
2021/08/23 08:17:38;;;;;;;1.00;0.90;;;;;;;21.31;48.15;102059.69;4990884;28;20200;-70
2021/08/23 08:20:09;;;;;;;1.20;1.10;;;;;;;21.80;48.45;102157.19;4991726;28;20204;-70
2021/08/23 08:22:38;;;;;;;1.43;0.90;;;;;;;21.79;47.91;102150.00;4975550;28;20308;-70
2021/08/23 08:25:08;;;;;;;2.93;1.17;;;;;;;21.64;47.59;102156.88;4991154;28;20200;-70
2021/08/23 08:27:36;;;;;;;0.87;0.87;;;;;;;21.81;46.98;102158.94;4990534;28;20207;-70
2021/08/23 08:30:08;;;;;;;0.80;0.80;;;;;;;21.83;47.94;102139.63;4991495;28;20606;-70
2021/08/23 08:32:36;;;;;;;1.83;1.10;;;;;;;22.11;47.81;102154.38;4987924;28;20358;-70
2021/08/23 08:35:09;;;;;;;1.60;1.13;;;;;;;22.20;47.00;102164.44;4981530;28;20199;-70
2021/08/23 08:37:37;;;;;;;2.90;0.90;;;;;;;22.19;46.18;102157.25;4976666;28;20213;-70
2021/08/23 08:40:07;;;;;;;0.80;0.80;;;;;;;21.78;46.53;102159.22;4990996;28;20188;-70
2021/08/23 08:42:35;;;;;;;1.47;0.93;;;;;;;21.66;46.82;102160.34;4989938;28;20258;-70
2021/08/23 08:45:04;;;;;;;0.77;0.77;;;;;;;21.75;46.35;102159.50;4978638;28;20200;-70
2021/08/23 08:47:35;;;;;;;3.80;1.10;;;;;;;21.47;46.06;102127.50;4991061;28;20737;-70
2021/08/23 08:50:04;;;;;;;1.20;1.10;;;;;;;21.51;47.07;102170.81;4978093;28;20438;-70
2021/08/23 08:52:33;;;;;;;2.17;1.07;;;;;;;21.35;46.90;102157.66;4990631;28;20204;-70
2021/08/23 08:55:01;;;;;;;1.23;1.00;;;;;;;21.24;47.17;102155.06;4989800;28;20208;-70
2021/08/23 08:57:29;;;;;;;1.90;1.47;;;;;;;21.17;46.74;102163.91;4990440;28;20211;-70
2021/08/23 08:59:57;;;;;;;1.23;1.00;;;;;;;21.39;47.11;102153.66;4990751;28;20653;-70
2021/08/23 09:02:25;;;;;;;2.27;0.90;;;;;;;21.49;46.38;102155.56;5002981;28;20744;-70
2021/08/23 09:04:55;;;;;;;2.33;1.57;;;;;;;21.44;45.76;102168.78;4990544;28;20199;-70
2021/08/23 09:07:23;;;;;;;2.43;1.00;;;;;;;21.17;45.98;102169.38;4989227;28;20204;-70
2021/08/23 09:09:51;;;;;;;0.80;0.80;;;;;;;21.04;46.06;102164.13;4991146;28;20557;-70
2021/08/23 09:12:20;;;;;;;0.93;0.80;;;;;;;20.87;46.20;102096.50;4990249;28;20223;-70
2021/08/23 09:14:50;;;;;;;3.60;0.90;;;;;;;21.35;46.03;102162.28;4990630;28;20219;-70
2021/08/23 09:17:21;;;;;;;1.80;1.00;;;;;;;21.04;45.78;102131.34;4975850;28;20209;-70
2021/08/23 09:19:59;;;;;;;1.13;0.97;;;;;;;21.53;46.32;102159.75;4990952;28;20222;-70
2021/08/23 09:22:28;;;;;;;1.17;1.00;;;;;;;21.15;45.22;102165.94;4990060;28;20265;-70
2021/08/23 09:24:56;;;;;;;1.47;0.80;;;;;;;21.29;46.01;102163.69;4990401;28;20276;-70
2021/08/23 09:27:32;;;;;;;0.60;0.60;;;;;;;21.22;44.32;102165.22;4989630;28;20259;-70
2021/08/23 09:30:02;;;;;;;2.50;1.20;;;;;;;21.04;44.88;102166.88;4978678;28;20257;-70
2021/08/23 09:32:32;;;;;;;0.60;0.60;;;;;;;21.21;45.11;102170.84;4989705;28;20211;-70
2021/08/23 09:35:01;;;;;;;1.37;1.07;;;;;;;21.20;44.35;102169.97;4990245;28;20196;-70
2021/08/23 09:37:31;;;;;;;1.27;0.90;;;;;;;21.41;44.73;102158.13;4989965;28;20204;-70
2021/08/23 09:40:09;;;;;;;1.13;0.90;;;;;;;21.57;43.54;102166.66;4988661;28;20216;-70
2021/08/23 09:42:37;;;;;;;1.60;0.90;;;;;;;21.62;42.88;102161.63;4990382;28;20230;-70
2021/08/23 09:45:15;;;;;;;2.50;1.17;;;;;;;21.80;42.77;102164.53;4989931;28;20258;-70
2021/08/23 09:47:43;;;;;;;1.20;0.90;;;;;;;21.88;42.84;102162.81;4989388;28;20623;-70
2021/08/23 09:50:16;;;;;;;1.13;0.87;;;;;;;22.11;43.04;102132.47;5004515;28;20266;-70
2021/08/23 09:52:44;;;;;;;0.97;0.70;;;;;;;22.64;42.48;102151.97;4990207;28;20196;-70
2021/08/23 09:55:13;;;;;;;0.90;0.90;;;;;;;22.92;40.31;102133.75;4989533;28;20188;-70
2021/08/23 09:57:42;;;;;;;3.03;0.97;;;;;;;23.44;40.48;102161.50;5004525;28;20196;-70
2021/08/23 10:00:15;;;;;;;1.80;1.10;;;;;;;23.66;40.11;102161.13;4989479;28;20227;-70
2021/08/23 10:02:46;;;;;;;1.17;0.90;;;;;;;23.34;40.15;102160.69;4989561;28;20236;-70
2021/08/23 10:05:17;;;;;;;1.47;0.90;;;;;;;23.38;40.05;102145.66;4989819;28;20207;-70
2021/08/23 10:07:46;;;;;;;1.40;0.90;;;;;;;22.96;40.18;102150.75;4982163;28;20636;-70
2021/08/23 10:10:14;;;;;;;1.80;1.00;;;;;;;22.73;39.76;102166.69;5000057;28;20206;-70
2021/08/23 10:12:43;;;;;;;1.40;1.00;;;;;;;22.67;41.52;102164.53;4990134;28;20200;-70
2021/08/23 10:15:11;;;;;;;2.30;0.93;;;;;;;22.91;41.35;102165.75;4989004;28;20254;-70
2021/08/23 10:17:39;;;;;;;1.67;0.93;;;;;;;23.01;40.95;102165.75;4990160;28;20196;-70
2021/08/23 10:20:10;;;;;;;2.57;1.10;;;;;;;22.91;40.53;102163.03;4990045;28;20216;-70
2021/08/23 10:22:41;;;;;;;4.73;1.10;;;;;;;23.16;40.21;102164.22;4990292;28;20212;-70
2021/08/23 10:25:11;;;;;;;0.70;0.70;;;;;;;22.33;40.29;102123.06;4989210;28;20207;-70
2021/08/23 10:27:40;;;;;;;1.10;0.90;;;;;;;22.56;40.67;102160.94;4990147;28;20227;-70
2021/08/23 10:30:09;;;;;;;1.77;1.07;;;;;;;23.10;40.01;102162.09;4993484;28;20187;-71
2021/08/23 10:32:40;;;;;;;1.30;1.10;;;;;;;23.38;38.46;102162.13;5009174;28;20556;-70
2021/08/23 10:35:22;;;;;;;1.20;0.90;;;;;;;23.80;39.83;102167.94;4993982;28;20250;-70
2021/08/23 10:37:52;;;;;;;2.43;0.93;;;;;;;24.10;37.83;102164.81;4993185;28;20654;-70
2021/08/23 10:40:24;;;;;;;1.50;1.00;;;;;;;24.32;38.33;102162.63;4990051;28;20235;-69
2021/08/23 10:42:53;;;;;;;3.43;1.00;;;;;;;24.40;37.55;102170.94;4992596;28;20204;-70
2021/08/23 10:45:21;;;;;;;1.37;1.00;;;;;;;24.39;38.10;102160.97;4993236;28;20239;-70
2021/08/23 10:47:49;;;;;;;2.40;1.27;;;;;;;23.59;37.72;102154.53;4992305;28;20688;-70
2021/08/23 10:50:23;;;;;;;0.80;0.80;;;;;;;23.47;38.29;102147.47;4992936;28;20196;-69
2021/08/23 10:52:55;;;;;;;1.87;0.80;;;;;;;23.69;39.37;102149.81;4992373;28;20632;-70
2021/08/23 10:55:25;;;;;;;2.37;1.30;;;;;;;23.60;38.50;102149.91;4978753;28;20210;-70
2021/08/23 10:58:04;;;;;;;1.30;1.00;;;;;;;23.99;38.19;102139.50;4992737;28;20204;-70
2021/08/23 11:00:37;;;;;;;1.03;0.90;;;;;;;24.35;37.71;102163.19;4980072;28;20282;-70
2021/08/23 11:03:05;;;;;;;2.67;1.00;;;;;;;24.10;36.93;102153.81;4978338;28;20235;-70
2021/08/23 11:05:34;;;;;;;1.07;0.77;;;;;;;24.17;37.76;102154.91;4992068;28;20298;-70
2021/08/23 11:08:08;;;;;;;1.60;1.00;;;;;;;23.93;38.56;102148.34;4992786;28;20671;-70
2021/08/23 11:10:39;;;;;;;1.40;1.30;;;;;;;24.24;37.75;102146.94;4991848;28;20207;-70
2021/08/23 11:13:12;;;;;;;3.90;1.27;;;;;;;23.99;37.76;102150.47;4992553;28;20244;-68
2021/08/23 11:15:41;;;;;;;1.50;1.13;;;;;;;24.16;37.99;102146.84;4978138;28;20421;-70
2021/08/23 11:18:12;;;;;;;0.90;0.90;;;;;;;24.26;37.56;102136.66;4992116;28;20667;-69
2021/08/23 11:20:45;;;;;;;2.20;1.10;;;;;;;24.49;36.72;102141.63;4991676;28;20220;-70
2021/08/23 11:23:16;;;;;;;2.10;1.30;;;;;;;24.46;36.31;102140.94;4992801;28;20262;-69
2021/08/23 11:25:47;;;;;;;1.47;0.90;;;;;;;24.49;37.25;102145.28;4991194;28;20596;-70
2021/08/23 11:28:18;;;;;;;1.23;1.13;;;;;;;24.67;36.73;102151.56;4992164;28;20620;-69
2021/08/23 11:30:55;;;;;;;3.90;1.00;;;;;;;24.82;35.91;102157.34;5005446;28;20295;-70
2021/08/23 11:33:26;;;;;;;2.27;1.50;;;;;;;24.81;36.13;102147.38;4992847;28;20218;-70
2021/08/23 11:35:54;;;;;;;2.30;1.20;;;;;;;24.69;36.30;102154.16;4993057;28;20208;-70